sensor_id;sensor_type;location;lat;lon;timestamp;P1;durP1;ratioP1;P2;durP2;ratioP2
63499;SDS011;49654;51.142;14.924;2023-05-19T00:01:16;4.80;;;3.45;;
63499;SDS011;49654;51.142;14.924;2023-05-19T00:03:50;4.53;;;3.20;;
63499;SDS011;49654;51.142;14.924;2023-05-19T00:06:21;5.40;;;3.40;;
63499;SDS011;49654;51.142;14.924;2023-05-19T00:08:51;4.68;;;3.75;;
63499;SDS011;49654;51.142;14.924;2023-05-19T00:11:23;4.75;;;3.47;;
63499;SDS011;49654;51.142;14.924;2023-05-19T00:13:51;4.53;;;3.40;;
63499;SDS011;49654;51.142;14.924;2023-05-19T00:16:20;4.65;;;2.92;;
63499;SDS011;49654;51.142;14.924;2023-05-19T00:18:47;5.00;;;3.47;;
63499;SDS011;49654;51.142;14.924;2023-05-19T00:21:14;4.38;;;3.33;;
63499;SDS011;49654;51.142;14.924;2023-05-19T00:23:42;4.03;;;3.30;;
63499;SDS011;49654;51.142;14.924;2023-05-19T00:26:09;4.13;;;3.33;;
63499;SDS011;49654;51.142;14.924;2023-05-19T00:28:36;4.82;;;3.78;;
63499;SDS011;49654;51.142;14.924;2023-05-19T00:31:03;3.70;;;3.10;;
63499;SDS011;49654;51.142;14.924;2023-05-19T00:33:32;3.90;;;3.00;;
63499;SDS011;49654;51.142;14.924;2023-05-19T00:35:59;4.90;;;3.33;;
63499;SDS011;49654;51.142;14.924;2023-05-19T00:38:29;5.55;;;3.17;;
63499;SDS011;49654;51.142;14.924;2023-05-19T00:40:56;4.53;;;3.33;;
63499;SDS011;49654;51.142;14.924;2023-05-19T00:43:23;3.90;;;3.35;;
63499;SDS011;49654;51.142;14.924;2023-05-19T00:45:50;5.22;;;3.78;;
63499;SDS011;49654;51.142;14.924;2023-05-19T00:48:17;6.07;;;3.72;;
63499;SDS011;49654;51.142;14.924;2023-05-19T00:50:46;3.63;;;3.10;;
63499;SDS011;49654;51.142;14.924;2023-05-19T00:53:15;4.82;;;3.60;;
63499;SDS011;49654;51.142;14.924;2023-05-19T00:55:43;5.32;;;3.35;;
63499;SDS011;49654;51.142;14.924;2023-05-19T00:58:11;4.45;;;3.53;;
63499;SDS011;49654;51.142;14.924;2023-05-19T01:00:39;5.45;;;3.60;;
63499;SDS011;49654;51.142;14.924;2023-05-19T01:03:07;5.03;;;3.45;;
63499;SDS011;49654;51.142;14.924;2023-05-19T01:05:37;5.95;;;3.78;;
63499;SDS011;49654;51.142;14.924;2023-05-19T01:08:07;7.70;;;4.25;;
63499;SDS011;49654;51.142;14.924;2023-05-19T01:10:34;5.25;;;3.97;;
63499;SDS011;49654;51.142;14.924;2023-05-19T01:13:02;5.10;;;4.00;;
63499;SDS011;49654;51.142;14.924;2023-05-19T01:15:31;4.93;;;4.18;;
63499;SDS011;49654;51.142;14.924;2023-05-19T01:18:03;5.45;;;3.85;;
63499;SDS011;49654;51.142;14.924;2023-05-19T01:20:37;6.95;;;4.03;;
63499;SDS011;49654;51.142;14.924;2023-05-19T01:23:24;5.10;;;3.47;;
63499;SDS011;49654;51.142;14.924;2023-05-19T01:29:09;5.35;;;3.85;;
63499;SDS011;49654;51.142;14.924;2023-05-19T01:31:51;5.88;;;4.05;;
63499;SDS011;49654;51.142;14.924;2023-05-19T01:34:20;7.28;;;4.00;;
63499;SDS011;49654;51.142;14.924;2023-05-19T01:36:51;7.90;;;3.78;;
63499;SDS011;49654;51.142;14.924;2023-05-19T01:39:20;6.57;;;3.72;;
63499;SDS011;49654;51.142;14.924;2023-05-19T01:41:48;5.22;;;3.70;;
63499;SDS011;49654;51.142;14.924;2023-05-19T01:44:17;7.90;;;3.97;;
63499;SDS011;49654;51.142;14.924;2023-05-19T01:46:47;6.63;;;3.78;;
63499;SDS011;49654;51.142;14.924;2023-05-19T01:49:16;5.25;;;3.80;;
63499;SDS011;49654;51.142;14.924;2023-05-19T01:51:43;7.80;;;3.83;;
63499;SDS011;49654;51.142;14.924;2023-05-19T01:54:10;4.85;;;3.95;;
63499;SDS011;49654;51.142;14.924;2023-05-19T01:56:40;7.88;;;4.10;;
63499;SDS011;49654;51.142;14.924;2023-05-19T01:59:15;4.82;;;4.05;;
63499;SDS011;49654;51.142;14.924;2023-05-19T02:01:53;5.13;;;3.90;;
63499;SDS011;49654;51.142;14.924;2023-05-19T02:04:28;7.32;;;3.88;;
63499;SDS011;49654;51.142;14.924;2023-05-19T02:07:06;7.55;;;4.22;;
63499;SDS011;49654;51.142;14.924;2023-05-19T02:09:39;5.53;;;3.90;;
63499;SDS011;49654;51.142;14.924;2023-05-19T02:12:18;5.53;;;4.05;;
63499;SDS011;49654;51.142;14.924;2023-05-19T02:14:49;4.63;;;3.80;;
63499;SDS011;49654;51.142;14.924;2023-05-19T02:17:20;5.65;;;3.92;;
63499;SDS011;49654;51.142;14.924;2023-05-19T02:19:53;5.22;;;3.45;;
63499;SDS011;49654;51.142;14.924;2023-05-19T02:22:20;4.60;;;3.72;;
63499;SDS011;49654;51.142;14.924;2023-05-19T02:24:47;6.20;;;4.35;;
63499;SDS011;49654;51.142;14.924;2023-05-19T02:27:16;5.90;;;4.30;;
63499;SDS011;49654;51.142;14.924;2023-05-19T02:29:43;5.70;;;4.20;;
63499;SDS011;49654;51.142;14.924;2023-05-19T02:32:10;4.85;;;4.00;;
63499;SDS011;49654;51.142;14.924;2023-05-19T02:34:37;6.18;;;3.90;;
63499;SDS011;49654;51.142;14.924;2023-05-19T02:37:05;6.93;;;4.20;;
63499;SDS011;49654;51.142;14.924;2023-05-19T02:39:32;5.72;;;3.80;;
63499;SDS011;49654;51.142;14.924;2023-05-19T02:42:00;5.28;;;4.15;;
63499;SDS011;49654;51.142;14.924;2023-05-19T02:44:27;5.30;;;4.10;;
63499;SDS011;49654;51.142;14.924;2023-05-19T02:46:54;7.57;;;4.03;;
63499;SDS011;49654;51.142;14.924;2023-05-19T02:49:21;6.75;;;3.67;;
63499;SDS011;49654;51.142;14.924;2023-05-19T02:51:47;4.50;;;4.00;;
63499;SDS011;49654;51.142;14.924;2023-05-19T02:54:16;5.78;;;4.20;;
63499;SDS011;49654;51.142;14.924;2023-05-19T02:56:43;5.32;;;4.20;;
63499;SDS011;49654;51.142;14.924;2023-05-19T02:59:10;6.88;;;4.20;;
63499;SDS011;49654;51.142;14.924;2023-05-19T03:01:36;6.07;;;4.60;;
63499;SDS011;49654;51.142;14.924;2023-05-19T03:04:04;6.00;;;4.30;;
63499;SDS011;49654;51.142;14.924;2023-05-19T03:06:31;5.95;;;4.43;;
63499;SDS011;49654;51.142;14.924;2023-05-19T03:08:58;7.18;;;4.35;;
63499;SDS011;49654;51.142;14.924;2023-05-19T03:11:27;7.63;;;4.80;;
63499;SDS011;49654;51.142;14.924;2023-05-19T03:13:54;5.72;;;4.25;;
63499;SDS011;49654;51.142;14.924;2023-05-19T03:16:21;6.50;;;4.63;;
63499;SDS011;49654;51.142;14.924;2023-05-19T03:18:47;6.00;;;4.25;;
63499;SDS011;49654;51.142;14.924;2023-05-19T03:21:15;6.18;;;4.25;;
63499;SDS011;49654;51.142;14.924;2023-05-19T03:23:42;7.15;;;4.20;;
63499;SDS011;49654;51.142;14.924;2023-05-19T03:26:09;8.38;;;4.78;;
63499;SDS011;49654;51.142;14.924;2023-05-19T03:28:37;5.65;;;4.60;;
63499;SDS011;49654;51.142;14.924;2023-05-19T03:31:04;7.40;;;4.65;;
63499;SDS011;49654;51.142;14.924;2023-05-19T03:33:31;8.68;;;4.63;;
63499;SDS011;49654;51.142;14.924;2023-05-19T03:35:58;6.38;;;4.78;;
63499;SDS011;49654;51.142;14.924;2023-05-19T03:38:25;6.80;;;4.30;;
63499;SDS011;49654;51.142;14.924;2023-05-19T03:40:52;6.10;;;4.20;;
63499;SDS011;49654;51.142;14.924;2023-05-19T03:43:19;5.72;;;4.20;;
63499;SDS011;49654;51.142;14.924;2023-05-19T03:45:47;6.97;;;4.30;;
63499;SDS011;49654;51.142;14.924;2023-05-19T03:48:14;6.13;;;4.50;;
63499;SDS011;49654;51.142;14.924;2023-05-19T03:50:41;6.63;;;4.40;;
63499;SDS011;49654;51.142;14.924;2023-05-19T03:53:09;5.57;;;4.15;;
63499;SDS011;49654;51.142;14.924;2023-05-19T03:55:36;6.07;;;4.72;;
63499;SDS011;49654;51.142;14.924;2023-05-19T03:58:02;6.18;;;4.32;;
63499;SDS011;49654;51.142;14.924;2023-05-19T04:00:30;6.85;;;4.25;;
63499;SDS011;49654;51.142;14.924;2023-05-19T04:02:58;7.50;;;4.28;;
63499;SDS011;49654;51.142;14.924;2023-05-19T04:05:25;6.43;;;4.30;;
63499;SDS011;49654;51.142;14.924;2023-05-19T04:07:52;6.80;;;4.43;;
63499;SDS011;49654;51.142;14.924;2023-05-19T04:10:19;8.73;;;4.68;;
63499;SDS011;49654;51.142;14.924;2023-05-19T04:12:46;6.22;;;4.43;;
63499;SDS011;49654;51.142;14.924;2023-05-19T04:15:13;6.00;;;4.38;;
63499;SDS011;49654;51.142;14.924;2023-05-19T04:17:40;6.93;;;4.63;;
63499;SDS011;49654;51.142;14.924;2023-05-19T04:20:10;10.48;;;5.30;;
63499;SDS011;49654;51.142;14.924;2023-05-19T04:22:37;7.38;;;4.70;;
63499;SDS011;49654;51.142;14.924;2023-05-19T04:25:04;6.95;;;5.55;;
63499;SDS011;49654;51.142;14.924;2023-05-19T04:27:32;9.65;;;5.13;;
63499;SDS011;49654;51.142;14.924;2023-05-19T04:30:01;9.38;;;5.10;;
63499;SDS011;49654;51.142;14.924;2023-05-19T04:32:28;7.80;;;5.80;;
63499;SDS011;49654;51.142;14.924;2023-05-19T04:34:55;9.65;;;5.07;;
63499;SDS011;49654;51.142;14.924;2023-05-19T04:37:24;6.97;;;4.95;;
63499;SDS011;49654;51.142;14.924;2023-05-19T04:39:52;8.48;;;4.88;;
63499;SDS011;49654;51.142;14.924;2023-05-19T04:42:19;8.23;;;5.15;;
63499;SDS011;49654;51.142;14.924;2023-05-19T04:44:46;7.07;;;5.10;;
63499;SDS011;49654;51.142;14.924;2023-05-19T04:47:13;7.35;;;5.10;;
63499;SDS011;49654;51.142;14.924;2023-05-19T04:49:40;14.75;;;6.43;;
63499;SDS011;49654;51.142;14.924;2023-05-19T04:52:08;9.80;;;5.53;;
63499;SDS011;49654;51.142;14.924;2023-05-19T04:54:38;10.55;;;6.03;;
63499;SDS011;49654;51.142;14.924;2023-05-19T04:57:06;9.05;;;5.85;;
63499;SDS011;49654;51.142;14.924;2023-05-19T04:59:34;10.27;;;6.28;;
63499;SDS011;49654;51.142;14.924;2023-05-19T05:02:01;7.68;;;5.75;;
63499;SDS011;49654;51.142;14.924;2023-05-19T05:04:28;9.45;;;6.03;;
63499;SDS011;49654;51.142;14.924;2023-05-19T05:06:55;9.75;;;6.18;;
63499;SDS011;49654;51.142;14.924;2023-05-19T05:09:22;10.82;;;5.80;;
63499;SDS011;49654;51.142;14.924;2023-05-19T05:11:51;8.40;;;5.95;;
63499;SDS011;49654;51.142;14.924;2023-05-19T05:14:18;12.48;;;6.10;;
63499;SDS011;49654;51.142;14.924;2023-05-19T05:16:46;10.85;;;6.47;;
63499;SDS011;49654;51.142;14.924;2023-05-19T05:19:13;8.85;;;6.07;;
63499;SDS011;49654;51.142;14.924;2023-05-19T05:22:23;9.13;;;5.75;;
63499;SDS011;49654;51.142;14.924;2023-05-19T05:24:51;10.63;;;5.97;;
63499;SDS011;49654;51.142;14.924;2023-05-19T05:27:18;11.77;;;6.78;;
63499;SDS011;49654;51.142;14.924;2023-05-19T05:29:45;10.68;;;6.25;;
63499;SDS011;49654;51.142;14.924;2023-05-19T05:32:12;12.52;;;6.30;;
63499;SDS011;49654;51.142;14.924;2023-05-19T05:34:41;11.82;;;7.30;;
63499;SDS011;49654;51.142;14.924;2023-05-19T05:37:08;9.32;;;5.85;;
63499;SDS011;49654;51.142;14.924;2023-05-19T05:39:36;8.93;;;5.82;;
63499;SDS011;49654;51.142;14.924;2023-05-19T05:42:03;10.48;;;6.03;;
63499;SDS011;49654;51.142;14.924;2023-05-19T05:44:31;12.82;;;6.22;;
63499;SDS011;49654;51.142;14.924;2023-05-19T05:47:00;7.57;;;5.50;;
63499;SDS011;49654;51.142;14.924;2023-05-19T05:49:27;10.38;;;5.80;;
63499;SDS011;49654;51.142;14.924;2023-05-19T05:51:55;8.90;;;6.07;;
63499;SDS011;49654;51.142;14.924;2023-05-19T05:54:22;10.40;;;6.03;;
63499;SDS011;49654;51.142;14.924;2023-05-19T05:56:52;11.18;;;5.75;;
63499;SDS011;49654;51.142;14.924;2023-05-19T05:59:19;11.82;;;6.15;;
63499;SDS011;49654;51.142;14.924;2023-05-19T06:01:46;7.63;;;5.00;;
63499;SDS011;49654;51.142;14.924;2023-05-19T06:04:13;9.60;;;5.53;;
63499;SDS011;49654;51.142;14.924;2023-05-19T06:06:40;10.60;;;5.82;;
63499;SDS011;49654;51.142;14.924;2023-05-19T06:09:07;11.68;;;6.15;;
63499;SDS011;49654;51.142;14.924;2023-05-19T06:11:34;11.73;;;5.50;;
63499;SDS011;49654;51.142;14.924;2023-05-19T06:14:02;8.82;;;5.75;;
63499;SDS011;49654;51.142;14.924;2023-05-19T06:16:29;8.07;;;5.20;;
63499;SDS011;49654;51.142;14.924;2023-05-19T06:18:56;10.68;;;5.97;;
63499;SDS011;49654;51.142;14.924;2023-05-19T06:21:23;10.35;;;5.38;;
63499;SDS011;49654;51.142;14.924;2023-05-19T06:23:51;8.32;;;4.80;;
63499;SDS011;49654;51.142;14.924;2023-05-19T06:26:18;9.80;;;5.00;;
63499;SDS011;49654;51.142;14.924;2023-05-19T06:28:45;9.25;;;4.80;;
63499;SDS011;49654;51.142;14.924;2023-05-19T06:31:13;6.72;;;3.70;;
63499;SDS011;49654;51.142;14.924;2023-05-19T06:33:40;5.30;;;3.58;;
63499;SDS011;49654;51.142;14.924;2023-05-19T06:36:07;7.00;;;3.30;;
63499;SDS011;49654;51.142;14.924;2023-05-19T06:38:35;6.95;;;3.53;;
63499;SDS011;49654;51.142;14.924;2023-05-19T06:41:02;6.85;;;3.40;;
63499;SDS011;49654;51.142;14.924;2023-05-19T06:43:29;4.07;;;3.10;;
63499;SDS011;49654;51.142;14.924;2023-05-19T06:45:56;19.45;;;4.93;;
63499;SDS011;49654;51.142;14.924;2023-05-19T06:48:24;4.30;;;3.30;;
63499;SDS011;49654;51.142;14.924;2023-05-19T06:50:51;7.38;;;3.47;;
63499;SDS011;49654;51.142;14.924;2023-05-19T06:53:18;6.78;;;3.30;;
63499;SDS011;49654;51.142;14.924;2023-05-19T06:55:46;6.63;;;3.22;;
63499;SDS011;49654;51.142;14.924;2023-05-19T06:58:14;5.75;;;2.75;;
63499;SDS011;49654;51.142;14.924;2023-05-19T07:00:41;4.95;;;3.20;;
63499;SDS011;49654;51.142;14.924;2023-05-19T07:03:08;4.05;;;3.13;;
63499;SDS011;49654;51.142;14.924;2023-05-19T07:05:37;6.28;;;3.20;;
63499;SDS011;49654;51.142;14.924;2023-05-19T07:08:04;4.93;;;3.15;;
63499;SDS011;49654;51.142;14.924;2023-05-19T07:10:32;6.70;;;3.30;;
63499;SDS011;49654;51.142;14.924;2023-05-19T07:12:59;7.97;;;4.00;;
63499;SDS011;49654;51.142;14.924;2023-05-19T07:15:26;7.65;;;3.83;;
63499;SDS011;49654;51.142;14.924;2023-05-19T07:17:53;4.75;;;3.30;;
63499;SDS011;49654;51.142;14.924;2023-05-19T07:20:20;8.20;;;3.10;;
63499;SDS011;49654;51.142;14.924;2023-05-19T07:22:48;6.45;;;3.47;;
63499;SDS011;49654;51.142;14.924;2023-05-19T07:25:15;7.38;;;3.63;;
63499;SDS011;49654;51.142;14.924;2023-05-19T07:27:42;5.68;;;3.55;;
63499;SDS011;49654;51.142;14.924;2023-05-19T07:30:10;6.85;;;3.47;;
63499;SDS011;49654;51.142;14.924;2023-05-19T07:32:37;6.53;;;3.08;;
63499;SDS011;49654;51.142;14.924;2023-05-19T07:35:04;5.47;;;3.42;;
63499;SDS011;49654;51.142;14.924;2023-05-19T07:37:32;6.28;;;3.63;;
63499;SDS011;49654;51.142;14.924;2023-05-19T07:40:00;6.00;;;2.92;;
63499;SDS011;49654;51.142;14.924;2023-05-19T07:42:27;6.93;;;3.60;;
63499;SDS011;49654;51.142;14.924;2023-05-19T07:44:54;6.15;;;3.60;;
63499;SDS011;49654;51.142;14.924;2023-05-19T07:47:21;6.55;;;3.30;;
63499;SDS011;49654;51.142;14.924;2023-05-19T07:49:47;5.78;;;3.35;;
63499;SDS011;49654;51.142;14.924;2023-05-19T07:52:14;5.25;;;3.50;;
63499;SDS011;49654;51.142;14.924;2023-05-19T07:54:43;4.50;;;3.30;;
63499;SDS011;49654;51.142;14.924;2023-05-19T07:57:11;6.45;;;3.47;;
63499;SDS011;49654;51.142;14.924;2023-05-19T07:59:39;7.57;;;3.42;;
63499;SDS011;49654;51.142;14.924;2023-05-19T08:02:06;7.25;;;4.03;;
63499;SDS011;49654;51.142;14.924;2023-05-19T08:04:33;8.75;;;4.80;;
63499;SDS011;49654;51.142;14.924;2023-05-19T08:07:00;7.22;;;3.95;;
63499;SDS011;49654;51.142;14.924;2023-05-19T08:09:27;5.95;;;3.83;;
63499;SDS011;49654;51.142;14.924;2023-05-19T08:11:54;7.28;;;3.75;;
63499;SDS011;49654;51.142;14.924;2023-05-19T08:14:22;5.30;;;3.63;;
63499;SDS011;49654;51.142;14.924;2023-05-19T08:16:49;8.98;;;3.97;;
63499;SDS011;49654;51.142;14.924;2023-05-19T08:19:16;6.70;;;4.25;;
63499;SDS011;49654;51.142;14.924;2023-05-19T08:21:43;6.60;;;4.30;;
63499;SDS011;49654;51.142;14.924;2023-05-19T08:24:09;8.00;;;4.10;;
63499;SDS011;49654;51.142;14.924;2023-05-19T08:26:37;7.22;;;4.65;;
63499;SDS011;49654;51.142;14.924;2023-05-19T08:29:03;6.07;;;4.35;;
63499;SDS011;49654;51.142;14.924;2023-05-19T08:31:32;7.05;;;4.22;;
63499;SDS011;49654;51.142;14.924;2023-05-19T08:33:59;6.28;;;3.80;;
63499;SDS011;49654;51.142;14.924;2023-05-19T08:36:26;8.52;;;4.25;;
63499;SDS011;49654;51.142;14.924;2023-05-19T08:38:53;8.48;;;4.07;;
63499;SDS011;49654;51.142;14.924;2023-05-19T08:41:20;8.25;;;4.55;;
63499;SDS011;49654;51.142;14.924;2023-05-19T08:43:48;6.63;;;3.90;;
63499;SDS011;49654;51.142;14.924;2023-05-19T08:46:15;7.53;;;3.90;;
63499;SDS011;49654;51.142;14.924;2023-05-19T08:48:44;6.15;;;3.88;;
63499;SDS011;49654;51.142;14.924;2023-05-19T08:51:16;8.65;;;4.35;;
63499;SDS011;49654;51.142;14.924;2023-05-19T08:53:47;8.00;;;4.18;;
63499;SDS011;49654;51.142;14.924;2023-05-19T08:56:18;7.97;;;4.47;;
63499;SDS011;49654;51.142;14.924;2023-05-19T08:58:48;5.82;;;3.88;;
63499;SDS011;49654;51.142;14.924;2023-05-19T09:01:15;8.48;;;4.25;;
63499;SDS011;49654;51.142;14.924;2023-05-19T09:03:45;8.85;;;4.20;;
63499;SDS011;49654;51.142;14.924;2023-05-19T09:06:14;7.53;;;3.90;;
63499;SDS011;49654;51.142;14.924;2023-05-19T09:08:41;5.80;;;3.42;;
63499;SDS011;49654;51.142;14.924;2023-05-19T09:11:09;7.68;;;3.58;;
63499;SDS011;49654;51.142;14.924;2023-05-19T09:13:36;6.53;;;3.70;;
63499;SDS011;49654;51.142;14.924;2023-05-19T09:16:04;7.18;;;3.60;;
63499;SDS011;49654;51.142;14.924;2023-05-19T09:18:31;4.93;;;3.53;;
63499;SDS011;49654;51.142;14.924;2023-05-19T09:21:00;9.88;;;3.45;;
63499;SDS011;49654;51.142;14.924;2023-05-19T09:23:28;9.75;;;5.18;;
63499;SDS011;49654;51.142;14.924;2023-05-19T09:25:57;7.38;;;3.65;;
63499;SDS011;49654;51.142;14.924;2023-05-19T09:28:28;7.95;;;3.83;;
63499;SDS011;49654;51.142;14.924;2023-05-19T09:30:58;5.78;;;3.60;;
63499;SDS011;49654;51.142;14.924;2023-05-19T09:33:25;7.75;;;3.92;;
63499;SDS011;49654;51.142;14.924;2023-05-19T09:35:52;7.68;;;3.72;;
63499;SDS011;49654;51.142;14.924;2023-05-19T09:38:21;6.72;;;3.42;;
63499;SDS011;49654;51.142;14.924;2023-05-19T09:40:49;7.53;;;4.18;;
63499;SDS011;49654;51.142;14.924;2023-05-19T09:43:16;7.70;;;4.47;;
63499;SDS011;49654;51.142;14.924;2023-05-19T09:45:43;7.95;;;4.03;;
63499;SDS011;49654;51.142;14.924;2023-05-19T09:48:10;7.05;;;4.15;;
63499;SDS011;49654;51.142;14.924;2023-05-19T09:50:37;8.63;;;4.40;;
63499;SDS011;49654;51.142;14.924;2023-05-19T09:53:04;7.10;;;4.53;;
63499;SDS011;49654;51.142;14.924;2023-05-19T09:55:32;9.02;;;4.45;;
63499;SDS011;49654;51.142;14.924;2023-05-19T09:58:00;4.95;;;4.03;;
63499;SDS011;49654;51.142;14.924;2023-05-19T10:00:28;5.63;;;3.75;;
63499;SDS011;49654;51.142;14.924;2023-05-19T10:02:58;7.90;;;4.75;;
63499;SDS011;49654;51.142;14.924;2023-05-19T10:05:26;9.02;;;4.70;;
63499;SDS011;49654;51.142;14.924;2023-05-19T10:07:55;7.40;;;5.15;;
63499;SDS011;49654;51.142;14.924;2023-05-19T10:10:22;8.98;;;5.15;;
63499;SDS011;49654;51.142;14.924;2023-05-19T10:12:50;7.43;;;5.45;;
63499;SDS011;49654;51.142;14.924;2023-05-19T10:15:17;7.22;;;5.28;;
63499;SDS011;49654;51.142;14.924;2023-05-19T10:17:44;6.88;;;5.53;;
63499;SDS011;49654;51.142;14.924;2023-05-19T10:20:12;8.95;;;5.20;;
63499;SDS011;49654;51.142;14.924;2023-05-19T10:22:42;8.52;;;5.57;;
63499;SDS011;49654;51.142;14.924;2023-05-19T10:25:11;11.68;;;6.47;;
63499;SDS011;49654;51.142;14.924;2023-05-19T10:27:40;7.90;;;4.95;;
63499;SDS011;49654;51.142;14.924;2023-05-19T10:30:11;6.90;;;5.30;;
63499;SDS011;49654;51.142;14.924;2023-05-19T10:32:41;10.25;;;5.50;;
63499;SDS011;49654;51.142;14.924;2023-05-19T10:35:13;7.75;;;5.28;;
63499;SDS011;49654;51.142;14.924;2023-05-19T10:37:52;9.63;;;5.43;;
63499;SDS011;49654;51.142;14.924;2023-05-19T10:40:25;8.13;;;5.50;;
63499;SDS011;49654;51.142;14.924;2023-05-19T10:43:06;10.85;;;5.32;;
63499;SDS011;49654;51.142;14.924;2023-05-19T10:45:44;9.13;;;5.65;;
63499;SDS011;49654;51.142;14.924;2023-05-19T10:48:14;9.32;;;5.88;;
63499;SDS011;49654;51.142;14.924;2023-05-19T10:50:44;8.48;;;6.13;;
63499;SDS011;49654;51.142;14.924;2023-05-19T10:53:13;8.93;;;5.57;;
63499;SDS011;49654;51.142;14.924;2023-05-19T10:55:44;9.52;;;6.05;;
63499;SDS011;49654;51.142;14.924;2023-05-19T10:58:12;10.73;;;6.90;;
63499;SDS011;49654;51.142;14.924;2023-05-19T11:00:39;10.02;;;6.55;;
63499;SDS011;49654;51.142;14.924;2023-05-19T11:03:14;12.52;;;5.82;;
63499;SDS011;49654;51.142;14.924;2023-05-19T11:05:42;10.23;;;5.53;;
63499;SDS011;49654;51.142;14.924;2023-05-19T11:08:10;10.90;;;6.25;;
63499;SDS011;49654;51.142;14.924;2023-05-19T11:10:37;10.07;;;5.63;;
63499;SDS011;49654;51.142;14.924;2023-05-19T11:13:05;9.77;;;5.55;;
63499;SDS011;49654;51.142;14.924;2023-05-19T11:15:33;10.30;;;6.13;;
63499;SDS011;49654;51.142;14.924;2023-05-19T11:18:01;9.73;;;5.43;;
63499;SDS011;49654;51.142;14.924;2023-05-19T11:20:31;7.50;;;5.57;;
63499;SDS011;49654;51.142;14.924;2023-05-19T11:23:00;8.13;;;4.93;;
63499;SDS011;49654;51.142;14.924;2023-05-19T11:25:43;8.43;;;4.82;;
63499;SDS011;49654;51.142;14.924;2023-05-19T11:28:14;10.75;;;5.38;;
63499;SDS011;49654;51.142;14.924;2023-05-19T11:30:43;7.55;;;5.13;;
63499;SDS011;49654;51.142;14.924;2023-05-19T11:33:11;8.57;;;4.90;;
63499;SDS011;49654;51.142;14.924;2023-05-19T11:35:40;8.65;;;4.85;;
63499;SDS011;49654;51.142;14.924;2023-05-19T11:38:09;5.65;;;4.60;;
63499;SDS011;49654;51.142;14.924;2023-05-19T11:40:36;11.95;;;5.22;;
63499;SDS011;49654;51.142;14.924;2023-05-19T11:43:04;7.72;;;5.57;;
63499;SDS011;49654;51.142;14.924;2023-05-19T11:45:31;9.70;;;6.40;;
63499;SDS011;49654;51.142;14.924;2023-05-19T11:47:59;10.35;;;6.25;;
63499;SDS011;49654;51.142;14.924;2023-05-19T11:50:27;8.02;;;5.40;;
63499;SDS011;49654;51.142;14.924;2023-05-19T11:52:58;8.05;;;5.10;;
63499;SDS011;49654;51.142;14.924;2023-05-19T11:55:26;7.95;;;4.93;;
63499;SDS011;49654;51.142;14.924;2023-05-19T11:57:56;6.55;;;4.57;;
63499;SDS011;49654;51.142;14.924;2023-05-19T12:00:24;8.18;;;4.90;;
63499;SDS011;49654;51.142;14.924;2023-05-19T12:02:51;4.85;;;4.15;;
63499;SDS011;49654;51.142;14.924;2023-05-19T12:05:18;6.47;;;3.92;;
63499;SDS011;49654;51.142;14.924;2023-05-19T12:07:46;6.38;;;4.15;;
63499;SDS011;49654;51.142;14.924;2023-05-19T12:10:17;5.72;;;3.92;;
63499;SDS011;49654;51.142;14.924;2023-05-19T12:12:47;6.85;;;4.47;;
63499;SDS011;49654;51.142;14.924;2023-05-19T12:15:14;9.00;;;3.70;;
63499;SDS011;49654;51.142;14.924;2023-05-19T12:17:41;5.88;;;3.72;;
63499;SDS011;49654;51.142;14.924;2023-05-19T12:20:11;8.70;;;3.88;;
63499;SDS011;49654;51.142;14.924;2023-05-19T12:22:40;6.13;;;4.40;;
63499;SDS011;49654;51.142;14.924;2023-05-19T12:25:07;6.53;;;4.07;;
63499;SDS011;49654;51.142;14.924;2023-05-19T12:27:36;5.32;;;3.58;;
63499;SDS011;49654;51.142;14.924;2023-05-19T12:30:03;4.28;;;2.72;;
63499;SDS011;49654;51.142;14.924;2023-05-19T12:32:32;4.03;;;3.00;;
63499;SDS011;49654;51.142;14.924;2023-05-19T12:35:01;4.45;;;3.08;;
63499;SDS011;49654;51.142;14.924;2023-05-19T12:37:29;5.55;;;3.10;;
63499;SDS011;49654;51.142;14.924;2023-05-19T12:39:58;4.40;;;3.40;;
63499;SDS011;49654;51.142;14.924;2023-05-19T12:42:25;4.47;;;3.30;;
63499;SDS011;49654;51.142;14.924;2023-05-19T12:44:58;4.80;;;3.20;;
63499;SDS011;49654;51.142;14.924;2023-05-19T12:47:30;5.57;;;3.20;;
63499;SDS011;49654;51.142;14.924;2023-05-19T12:50:02;4.50;;;3.28;;
63499;SDS011;49654;51.142;14.924;2023-05-19T12:52:30;5.90;;;3.75;;
63499;SDS011;49654;51.142;14.924;2023-05-19T12:55:00;7.85;;;3.47;;
63499;SDS011;49654;51.142;14.924;2023-05-19T12:57:29;5.82;;;4.78;;
63499;SDS011;49654;51.142;14.924;2023-05-19T13:00:02;5.25;;;3.78;;
63499;SDS011;49654;51.142;14.924;2023-05-19T13:02:32;7.97;;;3.90;;
63499;SDS011;49654;51.142;14.924;2023-05-19T13:05:00;6.28;;;3.70;;
63499;SDS011;49654;51.142;14.924;2023-05-19T13:07:28;6.22;;;4.00;;
63499;SDS011;49654;51.142;14.924;2023-05-19T13:09:55;9.27;;;4.90;;
63499;SDS011;49654;51.142;14.924;2023-05-19T13:12:22;3.97;;;3.38;;
63499;SDS011;49654;51.142;14.924;2023-05-19T13:14:49;6.25;;;3.72;;
63499;SDS011;49654;51.142;14.924;2023-05-19T13:17:17;5.50;;;3.30;;
63499;SDS011;49654;51.142;14.924;2023-05-19T13:19:45;4.32;;;3.35;;
63499;SDS011;49654;51.142;14.924;2023-05-19T13:22:11;5.07;;;3.75;;
63499;SDS011;49654;51.142;14.924;2023-05-19T13:24:38;7.72;;;6.03;;
63499;SDS011;49654;51.142;14.924;2023-05-19T13:27:05;9.43;;;5.90;;
63499;SDS011;49654;51.142;14.924;2023-05-19T13:29:32;9.73;;;6.30;;
63499;SDS011;49654;51.142;14.924;2023-05-19T13:31:59;8.40;;;6.38;;
63499;SDS011;49654;51.142;14.924;2023-05-19T13:34:27;11.50;;;7.10;;
63499;SDS011;49654;51.142;14.924;2023-05-19T13:36:54;9.20;;;6.45;;
63499;SDS011;49654;51.142;14.924;2023-05-19T13:39:21;8.60;;;6.28;;
63499;SDS011;49654;51.142;14.924;2023-05-19T13:41:48;9.00;;;6.07;;
63499;SDS011;49654;51.142;14.924;2023-05-19T13:44:15;7.97;;;5.88;;
63499;SDS011;49654;51.142;14.924;2023-05-19T13:46:42;7.63;;;5.82;;
63499;SDS011;49654;51.142;14.924;2023-05-19T13:49:09;16.83;;;7.10;;
63499;SDS011;49654;51.142;14.924;2023-05-19T13:51:38;11.68;;;6.50;;
63499;SDS011;49654;51.142;14.924;2023-05-19T13:54:07;11.02;;;6.35;;
63499;SDS011;49654;51.142;14.924;2023-05-19T13:56:34;11.88;;;6.90;;
63499;SDS011;49654;51.142;14.924;2023-05-19T13:59:01;8.57;;;6.28;;
63499;SDS011;49654;51.142;14.924;2023-05-19T14:01:29;12.30;;;6.63;;
63499;SDS011;49654;51.142;14.924;2023-05-19T14:03:56;9.80;;;6.68;;
63499;SDS011;49654;51.142;14.924;2023-05-19T14:06:23;9.70;;;6.82;;
63499;SDS011;49654;51.142;14.924;2023-05-19T14:08:51;9.88;;;6.45;;
63499;SDS011;49654;51.142;14.924;2023-05-19T14:11:18;7.57;;;5.95;;
63499;SDS011;49654;51.142;14.924;2023-05-19T14:13:46;9.18;;;5.95;;
63499;SDS011;49654;51.142;14.924;2023-05-19T14:16:13;8.43;;;5.85;;
63499;SDS011;49654;51.142;14.924;2023-05-19T14:18:40;8.88;;;6.40;;
63499;SDS011;49654;51.142;14.924;2023-05-19T14:21:07;7.85;;;6.00;;
63499;SDS011;49654;51.142;14.924;2023-05-19T14:23:34;9.13;;;5.70;;
63499;SDS011;49654;51.142;14.924;2023-05-19T14:26:03;8.57;;;5.85;;
63499;SDS011;49654;51.142;14.924;2023-05-19T14:28:30;7.97;;;5.28;;
63499;SDS011;49654;51.142;14.924;2023-05-19T14:30:56;8.15;;;5.43;;
63499;SDS011;49654;51.142;14.924;2023-05-19T14:33:23;8.52;;;5.97;;
63499;SDS011;49654;51.142;14.924;2023-05-19T14:35:51;9.73;;;5.90;;
63499;SDS011;49654;51.142;14.924;2023-05-19T14:38:18;6.47;;;5.07;;
63499;SDS011;49654;51.142;14.924;2023-05-19T14:40:45;7.43;;;5.47;;
63499;SDS011;49654;51.142;14.924;2023-05-19T14:43:14;7.15;;;5.68;;